Time,TemperatureF,DewpointF,PressureIn,WindDirection,WindDirectionDegrees,WindSpeedMPH,WindSpeedGustMPH,Humidity,HourlyPrecipIn,Conditions,Clouds,dailyrainin,SoftwareType,DateUTC
2013-03-05 00:03:00,55.8,41.2,30.03,NNE,22,0.0,0.0,48,0.00,,,-99.99,Homeseer,2013-03-05 05:03:00,
2013-03-05 00:13:00,55.8,40.8,30.03,North,0,0.9,0.0,47,0.00,,,-99.99,Homeseer,2013-03-05 05:13:00,
2013-03-05 00:23:00,55.8,40.8,30.03,North,0,0.0,0.0,47,0.00,,,-99.99,Homeseer,2013-03-05 05:23:00,
2013-03-05 00:33:00,55.8,40.4,30.03,WNW,297,0.0,0.0,46,0.00,,,-99.99,Homeseer,2013-03-05 05:33:00,
2013-03-05 00:43:00,55.6,40.3,30.03,North,0,2.0,2.0,46,0.00,,,-99.99,Homeseer,2013-03-05 05:43:00,
2013-03-05 00:53:00,55.8,40.8,30.03,North,0,0.0,0.0,47,0.00,,,-99.99,Homeseer,2013-03-05 05:53:00,
2013-03-05 01:03:00,55.4,40.5,30.03,North,0,0.0,0.0,47,0.00,,,-99.99,Homeseer,2013-03-05 06:03:00,
2013-03-05 01:13:00,55.6,41.8,30.03,WNW,297,1.3,0.0,50,0.00,,,-99.99,Homeseer,2013-03-05 06:13:00,
2013-03-05 01:23:00,55.4,41.6,30.03,North,0,0.0,0.0,50,0.00,,,-99.99,Homeseer,2013-03-05 06:23:00,
2013-03-05 01:33:00,55.4,41.3,30.00,WNW,297,0.0,0.0,49,0.00,,,-99.99,Homeseer,2013-03-05 06:33:00,
2013-03-05 01:43:00,55.2,41.5,30.00,North,0,0.0,0.0,50,0.00,,,-99.99,Homeseer,2013-03-05 06:43:00,
2013-03-05 01:53:00,55.2,43.3,30.00,NNE,22,0.0,0.0,55,0.00,,,-99.99,Homeseer,2013-03-05 06:53:00,
2013-03-05 02:03:00,54.9,45.0,30.00,North,0,0.0,0.0,61,0.00,,,-99.99,Homeseer,2013-03-05 07:03:00,
2013-03-05 02:13:00,54.9,43.7,30.00,NW,315,0.0,0.0,57,0.00,,,-99.99,Homeseer,2013-03-05 07:13:00,
2013-03-05 02:23:00,55.0,43.1,30.00,WNW,297,0.0,0.0,55,0.00,,,-99.99,Homeseer,2013-03-05 07:23:00,
2013-03-05 02:33:00,54.9,42.6,30.00,WNW,297,0.0,0.0,54,0.00,,,-99.99,Homeseer,2013-03-05 07:33:00,
2013-03-05 02:43:00,54.9,42.6,30.00,North,0,0.0,0.0,54,0.00,,,-99.99,Homeseer,2013-03-05 07:43:00,
2013-03-05 02:53:00,54.5,42.3,30.00,NNE,22,0.0,0.0,54,0.00,,,-99.99,Homeseer,2013-03-05 07:53:00,
2013-03-05 03:03:00,54.3,44.7,30.00,NNE,22,0.0,0.0,62,0.00,,,-99.99,Homeseer,2013-03-05 08:03:00,
2013-03-05 03:13:00,54.3,44.1,30.00,WNW,297,0.0,0.0,60,0.00,,,-99.99,Homeseer,2013-03-05 08:13:00,
2013-03-05 03:23:00,54.5,43.3,30.00,WNW,297,0.0,0.0,57,0.00,,,-99.99,Homeseer,2013-03-05 08:23:00,
2013-03-05 03:33:00,54.3,43.1,30.00,NNE,22,0.0,0.0,57,0.00,,,-99.99,Homeseer,2013-03-05 08:33:00,
2013-03-05 03:43:00,54.1,44.6,30.00,NNE,22,0.0,0.0,62,0.00,,,-99.99,Homeseer,2013-03-05 08:43:00,
2013-03-05 03:53:00,54.0,44.5,30.00,NNE,22,0.0,0.0,62,0.00,,,-99.99,Homeseer,2013-03-05 08:53:00,
2013-03-05 04:03:00,54.1,43.9,30.00,WSW,247,0.0,0.0,60,0.00,,,-99.99,Homeseer,2013-03-05 09:03:00,
2013-03-05 04:13:00,54.1,43.9,30.00,WSW,247,0.0,0.0,60,0.00,,,-99.99,Homeseer,2013-03-05 09:13:00,
2013-03-05 04:23:00,54.0,43.5,30.00,North,0,0.0,0.0,59,0.00,,,-99.99,Homeseer,2013-03-05 09:23:00,
2013-03-05 04:33:00,54.1,43.9,30.00,WNW,297,0.0,0.0,60,0.00,,,-99.99,Homeseer,2013-03-05 09:33:00,
2013-03-05 04:43:00,54.1,43.6,30.00,WNW,297,0.0,0.0,59,0.00,,,-99.99,Homeseer,2013-03-05 09:43:00,
2013-03-05 04:53:00,54.0,43.5,30.00,WNW,297,0.0,0.0,59,0.00,,,-99.99,Homeseer,2013-03-05 09:53:00,
2013-03-05 05:03:00,54.0,43.5,30.00,WNW,297,0.0,0.0,59,0.00,,,-99.99,Homeseer,2013-03-05 10:03:00,
2013-03-05 05:13:00,54.0,43.8,30.00,North,0,0.0,0.0,60,0.00,,,-99.99,Homeseer,2013-03-05 10:13:00,
2013-03-05 05:23:00,54.0,43.8,30.00,North,0,0.0,0.0,60,0.00,,,-99.99,Homeseer,2013-03-05 10:23:00,
2013-03-05 05:33:00,53.8,43.6,30.00,WNW,297,0.0,0.0,60,0.00,,,-99.99,Homeseer,2013-03-05 10:33:00,
2013-03-05 05:43:00,53.8,43.6,30.00,WNW,297,0.0,0.0,60,0.00,,,-99.99,Homeseer,2013-03-05 10:43:00,
2013-03-05 05:53:00,53.8,43.6,30.00,WNW,297,0.0,0.0,60,0.00,,,-99.99,Homeseer,2013-03-05 10:53:00,
2013-03-05 06:03:00,53.8,43.6,30.00,WNW,297,0.0,0.0,60,0.00,,,-99.99,Homeseer,2013-03-05 11:03:00,
2013-03-05 06:13:00,53.6,43.8,30.00,WNW,297,0.0,0.0,61,0.00,,,-99.99,Homeseer,2013-03-05 11:13:00,
2013-03-05 06:23:00,53.6,43.8,30.00,WNW,297,0.0,0.0,61,0.00,,,-99.99,Homeseer,2013-03-05 11:23:00,
2013-03-05 06:33:00,53.8,44.3,30.03,WNW,297,0.0,0.0,62,0.00,,,-99.99,Homeseer,2013-03-05 11:33:00,
2013-03-05 06:43:00,53.4,43.9,30.03,North,0,0.0,0.0,62,0.00,,,-99.99,Homeseer,2013-03-05 11:43:00,
2013-03-05 06:53:00,53.6,44.1,30.03,North,0,0.0,0.0,62,0.00,,,-99.99,Homeseer,2013-03-05 11:53:00,
2013-03-05 07:03:00,53.8,44.6,30.03,NW,315,0.0,0.0,63,0.00,,,-99.99,Homeseer,2013-03-05 12:03:00,
2013-03-05 07:13:00,54.1,45.2,30.03,North,0,0.0,0.0,64,0.00,,,-99.99,Homeseer,2013-03-05 12:13:00,
2013-03-05 07:23:00,54.5,45.5,30.03,NNE,22,0.0,0.0,64,0.00,,,-99.99,Homeseer,2013-03-05 12:23:00,
2013-03-05 07:33:00,55.2,46.8,30.03,NNE,22,0.0,0.0,66,0.00,,,-99.99,Homeseer,2013-03-05 12:33:00,
2013-03-05 07:43:00,56.3,49.3,30.03,North,0,0.0,0.0,71,0.00,,,-99.99,Homeseer,2013-03-05 12:43:00,
2013-03-05 07:53:00,57.0,50.2,30.03,North,0,0.0,0.0,72,0.00,,,-99.99,Homeseer,2013-03-05 12:53:00,
2013-03-05 08:03:00,58.3,52.0,30.03,North,0,2.7,2.7,74,0.00,,,-99.99,Homeseer,2013-03-05 13:03:00,
2013-03-05 08:13:00,59.0,52.2,30.06,North,0,2.0,2.0,72,0.00,,,-99.99,Homeseer,2013-03-05 13:13:00,
2013-03-05 08:23:00,60.1,52.6,30.06,North,0,0.0,2.5,70,0.00,,,-99.99,Homeseer,2013-03-05 13:23:00,
2013-03-05 08:33:00,61.2,53.4,30.06,North,0,2.0,2.5,69,0.00,,,-99.99,Homeseer,2013-03-05 13:33:00,
2013-03-05 08:43:00,62.1,53.9,30.06,North,0,2.5,2.5,68,0.00,,,-99.99,Homeseer,2013-03-05 13:43:00,
2013-03-05 08:53:00,63.3,54.5,30.06,North,0,1.3,1.3,66,0.00,,,-99.99,Homeseer,2013-03-05 13:53:00,
2013-03-05 09:03:00,64.2,54.7,30.06,NW,315,0.0,0.0,64,0.00,,,-99.99,Homeseer,2013-03-05 14:03:00,
2013-03-05 09:13:00,64.8,54.9,30.06,ESE,112,0.0,2.5,63,0.00,,,-99.99,Homeseer,2013-03-05 14:13:00,
2013-03-05 09:23:00,65.7,54.0,30.06,South,180,1.3,3.1,58,0.00,,,-99.99,Homeseer,2013-03-05 14:23:00,
2013-03-05 09:33:00,65.8,53.4,30.06,South,180,1.1,0.0,56,0.00,,,-99.99,Homeseer,2013-03-05 14:33:00,
2013-03-05 09:43:00,66.9,54.0,30.06,North,0,2.5,0.0,55,0.00,,,-99.99,Homeseer,2013-03-05 14:43:00,
2013-03-05 09:53:00,67.1,53.5,30.06,North,0,3.6,3.6,53,0.00,,,-99.99,Homeseer,2013-03-05 14:53:00,
2013-03-05 10:03:00,68.0,53.5,30.03,South,180,2.0,4.3,51,0.00,,,-99.99,Homeseer,2013-03-05 15:03:00,
2013-03-05 10:13:00,68.5,53.5,30.03,WNW,297,1.1,1.6,50,0.00,,,-99.99,Homeseer,2013-03-05 15:13:00,
2013-03-05 10:23:00,68.7,53.3,30.03,WSW,247,3.1,4.3,49,0.00,,,-99.99,Homeseer,2013-03-05 15:23:00,
2013-03-05 10:33:00,69.4,53.1,30.03,North,0,2.2,2.5,47,0.00,,,-99.99,Homeseer,2013-03-05 15:33:00,
2013-03-05 10:43:00,69.6,52.4,30.03,SSE,157,4.3,4.3,45,0.00,,,-99.99,Homeseer,2013-03-05 15:43:00,
2013-03-05 10:53:00,70.3,52.5,30.03,North,0,3.6,0.0,44,0.00,,,-99.99,Homeseer,2013-03-05 15:53:00,
2013-03-05 11:03:00,70.5,52.7,30.03,WSW,247,4.5,4.5,44,0.00,,,-99.99,Homeseer,2013-03-05 16:03:00,
2013-03-05 11:13:00,70.7,52.4,30.03,NNE,22,3.6,4.9,43,0.00,,,-99.99,Homeseer,2013-03-05 16:13:00,
2013-03-05 11:23:00,71.2,52.4,30.03,South,180,3.6,3.6,42,0.00,,,-99.99,Homeseer,2013-03-05 16:23:00,
2013-03-05 11:33:00,71.6,52.7,30.03,SSE,157,2.0,2.9,42,0.00,,,-99.99,Homeseer,2013-03-05 16:33:00,
2013-03-05 11:43:00,71.6,52.3,30.03,South,180,2.2,4.9,41,0.00,,,-99.99,Homeseer,2013-03-05 16:43:00,
2013-03-05 11:53:00,71.8,51.9,30.03,South,180,3.6,8.1,40,0.00,,,-99.99,Homeseer,2013-03-05 16:53:00,
2013-03-05 12:03:00,71.8,51.9,30.03,South,180,3.1,3.1,40,0.00,,,-99.99,Homeseer,2013-03-05 17:03:00,
2013-03-05 12:13:00,71.8,51.9,30.03,South,180,3.8,4.0,40,0.00,,,-99.99,Homeseer,2013-03-05 17:13:00,
2013-03-05 12:23:00,72.7,52.2,30.03,SSE,157,2.2,4.0,39,0.00,,,-99.99,Homeseer,2013-03-05 17:23:00,
2013-03-05 12:33:00,72.7,52.2,30.00,South,180,4.3,4.3,39,0.00,,,-99.99,Homeseer,2013-03-05 17:33:00,
2013-03-05 12:43:00,72.7,51.1,30.00,SSE,157,3.6,3.6,37,0.00,,,-99.99,Homeseer,2013-03-05 17:43:00,
2013-03-05 12:53:00,73.2,52.1,30.00,SE,135,2.5,2.9,38,0.00,,,-99.99,Homeseer,2013-03-05 17:53:00,
2013-03-05 13:03:00,73.2,51.6,30.00,WSW,247,3.8,6.3,37,0.00,,,-99.99,Homeseer,2013-03-05 18:03:00,
2013-03-05 13:13:00,73.0,51.4,30.00,SSE,157,4.3,5.8,37,0.00,,,-99.99,Homeseer,2013-03-05 18:13:00,
2013-03-05 13:23:00,73.0,51.4,30.00,North,0,2.7,5.8,37,0.00,,,-99.99,Homeseer,2013-03-05 18:23:00,
2013-03-05 13:33:00,73.6,52.5,30.00,WSW,247,3.1,3.4,38,0.00,,,-99.99,Homeseer,2013-03-05 18:33:00,
2013-03-05 13:43:00,73.2,51.6,30.00,SSE,157,4.5,5.6,37,0.00,,,-99.99,Homeseer,2013-03-05 18:43:00,
2013-03-05 13:53:00,73.9,52.7,30.00,SSE,157,3.8,4.9,38,0.00,,,-99.99,Homeseer,2013-03-05 18:53:00,
2013-03-05 14:13:00,73.8,52.1,29.97,SE,135,1.3,3.4,37,0.00,,,-99.99,Homeseer,2013-03-05 19:13:00,
2013-03-05 14:23:00,73.9,52.2,29.97,SE,135,3.4,4.0,37,0.00,,,-99.99,Homeseer,2013-03-05 19:23:00,
2013-03-05 14:33:00,73.8,52.1,29.97,North,0,4.3,5.6,37,0.00,,,-99.99,Homeseer,2013-03-05 19:33:00,
2013-03-05 14:43:00,73.9,51.6,29.97,SSE,157,3.8,5.4,36,0.00,,,-99.99,Homeseer,2013-03-05 19:43:00,
2013-03-05 14:53:00,73.9,51.6,29.97,SSE,157,3.6,3.6,36,0.00,,,-99.99,Homeseer,2013-03-05 19:53:00,
2013-03-05 15:03:00,73.9,51.6,29.97,SSE,157,5.8,5.8,36,0.00,,,-99.99,Homeseer,2013-03-05 20:03:00,
2013-03-05 15:13:00,73.9,51.6,29.97,South,180,4.3,4.3,36,0.00,,,-99.99,Homeseer,2013-03-05 20:13:00,
2013-03-05 15:23:00,73.9,51.6,29.97,SSE,157,4.0,5.8,36,0.00,,,-99.99,Homeseer,2013-03-05 20:23:00,
2013-03-05 15:33:00,73.9,51.6,29.97,North,0,4.3,4.3,36,0.00,,,-99.99,Homeseer,2013-03-05 20:33:00,
2013-03-05 15:43:00,73.9,51.6,29.97,North,0,2.2,2.9,36,0.00,,,-99.99,Homeseer,2013-03-05 20:43:00,
2013-03-05 15:53:00,0.0,0.0,29.97,South,180,5.4,8.5,0,0.00,,,-99.99,Homeseer,2013-03-05 20:53:00,
2013-03-05 16:03:00,0.0,0.0,29.97,South,180,3.1,6.0,0,0.00,,,-99.99,Homeseer,2013-03-05 21:03:00,
2013-03-05 16:13:00,0.0,0.0,29.94,South,180,7.4,7.4,0,0.00,,,-99.99,Homeseer,2013-03-05 21:13:00,
2013-03-05 16:23:00,0.0,0.0,29.94,ENE,67,3.1,3.4,0,0.00,,,-99.99,Homeseer,2013-03-05 21:23:00,
2013-03-05 16:33:00,0.0,0.0,29.94,SSE,157,2.7,3.4,0,0.00,,,-99.99,Homeseer,2013-03-05 21:33:00,
2013-03-05 16:43:00,0.0,0.0,29.94,South,180,3.6,6.5,0,0.00,,,-99.99,Homeseer,2013-03-05 21:43:00,
2013-03-05 16:53:00,0.0,0.0,29.94,South,180,3.1,3.1,0,0.00,,,-99.99,Homeseer,2013-03-05 21:53:00,
2013-03-05 17:03:00,0.0,0.0,29.97,SSE,157,3.8,5.6,0,0.00,,,-99.99,Homeseer,2013-03-05 22:03:00,
2013-03-05 17:13:00,0.0,0.0,29.97,WNW,297,2.7,4.0,0,0.00,,,-99.99,Homeseer,2013-03-05 22:13:00,
2013-03-05 17:23:00,0.0,0.0,29.97,North,0,3.1,3.6,0,0.00,,,-99.99,Homeseer,2013-03-05 22:23:00,
2013-03-05 17:33:00,0.0,0.0,29.97,South,180,3.8,3.8,0,0.00,,,-99.99,Homeseer,2013-03-05 22:33:00,
2013-03-05 17:43:00,0.0,0.0,29.97,North,0,4.3,4.3,0,0.00,,,-99.99,Homeseer,2013-03-05 22:43:00,
2013-03-05 17:53:00,70.0,51.3,29.97,North,0,2.2,3.1,42,0.00,,,-99.99,Homeseer,2013-03-05 22:53:00,
2013-03-05 18:03:00,69.6,51.0,29.97,North,0,4.3,5.4,42,0.00,,,-99.99,Homeseer,2013-03-05 23:03:00,
2013-03-05 18:13:00,69.3,51.2,29.94,South,180,5.4,5.4,43,0.00,,,-99.99,Homeseer,2013-03-05 23:13:00,
2013-03-05 18:23:00,69.1,51.0,29.94,North,0,3.1,4.7,43,0.00,,,-99.99,Homeseer,2013-03-05 23:23:00,
2013-03-05 18:33:00,68.7,50.7,29.94,North,0,2.5,2.5,43,0.00,,,-99.99,Homeseer,2013-03-05 23:33:00,
2013-03-05 18:43:00,68.7,51.1,29.94,WNW,297,3.1,5.4,44,0.00,,,-99.99,Homeseer,2013-03-05 23:43:00,
2013-03-05 18:53:00,68.4,50.8,29.94,North,0,2.7,2.7,44,0.00,,,-99.99,Homeseer,2013-03-05 23:53:00,
2013-03-05 19:03:00,68.4,50.8,29.97,North,0,2.2,0.0,44,0.00,,,-99.99,Homeseer,2013-03-06 00:03:00,
2013-03-05 19:13:00,68.4,50.8,29.97,North,0,0.0,0.0,44,0.00,,,-99.99,Homeseer,2013-03-06 00:13:00,
2013-03-05 19:23:00,68.4,50.8,29.97,North,0,2.2,4.0,44,0.00,,,-99.99,Homeseer,2013-03-06 00:23:00,
2013-03-05 19:33:00,68.4,50.8,29.97,WSW,247,0.9,2.2,44,0.00,,,-99.99,Homeseer,2013-03-06 00:33:00,
2013-03-05 19:43:00,68.4,50.8,29.97,ESE,112,0.0,0.0,44,0.00,,,-99.99,Homeseer,2013-03-06 00:43:00,
2013-03-05 19:53:00,0.0,0.0,29.97,WSW,247,0.0,2.7,0,0.00,,,-99.99,Homeseer,2013-03-06 00:53:00,
2013-03-05 20:03:00,0.0,0.0,29.97,North,0,0.0,0.0,0,0.00,,,-99.99,Homeseer,2013-03-06 01:03:00,
2013-03-05 20:13:00,0.0,0.0,29.97,WNW,297,0.0,0.0,0,0.00,,,-99.99,Homeseer,2013-03-06 01:13:00,
2013-03-05 20:23:00,0.0,0.0,29.97,WNW,297,0.0,0.0,0,0.00,,,-99.99,Homeseer,2013-03-06 01:23:00,
2013-03-05 20:33:00,66.7,51.1,29.97,WNW,297,0.0,0.0,48,0.00,,,-99.99,Homeseer,2013-03-06 01:33:00,
2013-03-05 20:43:00,66.6,51.4,29.97,SW,225,0.0,0.0,49,0.00,,,-99.99,Homeseer,2013-03-06 01:43:00,
2013-03-05 20:53:00,66.6,51.4,29.97,North,0,1.6,0.0,49,0.00,,,-99.99,Homeseer,2013-03-06 01:53:00,
2013-03-05 21:03:00,66.2,51.5,29.97,North,0,0.9,0.0,50,0.00,,,-99.99,Homeseer,2013-03-06 02:03:00,
2013-03-05 21:13:00,66.0,51.3,29.97,WNW,297,0.0,0.0,50,0.00,,,-99.99,Homeseer,2013-03-06 02:13:00,
2013-03-05 21:23:00,66.0,51.7,29.97,SSE,157,0.0,0.0,51,0.00,,,-99.99,Homeseer,2013-03-06 02:23:00,
2013-03-05 21:33:00,66.0,52.1,29.97,WNW,297,0.9,0.0,52,0.00,,,-99.99,Homeseer,2013-03-06 02:33:00,
2013-03-05 21:43:00,65.8,52.3,29.97,South,180,0.9,0.9,53,0.00,,,-99.99,Homeseer,2013-03-06 02:43:00,
2013-03-05 21:53:00,65.8,52.3,29.97,North,0,0.9,2.0,53,0.00,,,-99.99,Homeseer,2013-03-06 02:53:00,
2013-03-05 22:03:00,65.7,52.2,29.97,SSE,157,0.9,2.5,53,0.00,,,-99.99,Homeseer,2013-03-06 03:03:00,
2013-03-05 22:13:00,65.7,52.9,29.97,SSE,157,0.9,0.0,55,0.00,,,-99.99,Homeseer,2013-03-06 03:13:00,
2013-03-05 22:23:00,65.5,52.8,29.97,WNW,297,0.0,1.3,55,0.00,,,-99.99,Homeseer,2013-03-06 03:23:00,
2013-03-05 22:33:00,65.1,52.4,29.97,WNW,297,1.6,1.6,55,0.00,,,-99.99,Homeseer,2013-03-06 03:33:00,
2013-03-05 22:43:00,64.9,52.2,29.97,SW,225,0.0,0.0,55,0.00,,,-99.99,Homeseer,2013-03-06 03:43:00,
2013-03-05 22:53:00,64.8,52.5,29.97,North,0,0.0,0.0,56,0.00,,,-99.99,Homeseer,2013-03-06 03:53:00,
2013-03-05 23:03:00,64.4,52.1,29.97,WNW,297,0.0,0.0,56,0.00,,,-99.99,Homeseer,2013-03-06 04:03:00,
2013-03-05 23:13:00,64.2,52.6,29.97,WSW,247,0.0,0.0,58,0.00,,,-99.99,Homeseer,2013-03-06 04:13:00,
2013-03-05 23:23:00,64.0,52.5,29.97,NW,315,0.0,0.0,58,0.00,,,-99.99,Homeseer,2013-03-06 04:23:00,
2013-03-05 23:33:00,64.0,52.5,29.97,WSW,247,0.0,0.0,58,0.00,,,-99.99,Homeseer,2013-03-06 04:33:00,
2013-03-05 23:43:00,63.5,52.3,29.97,WSW,247,0.0,0.0,59,0.00,,,-99.99,Homeseer,2013-03-06 04:43:00,
2013-03-05 23:53:00,63.3,52.2,29.97,WSW,247,0.0,0.0,59,0.00,,,-99.99,Homeseer,2013-03-06 04:53:00,